Aviation Digital Data Service (ADDS)

Output produced by METARs form (2336 UTC 19 October 2017)
found at http://www.aviationweather.gov/adds/metars/
 
TAF LWOH 192030Z 1921/2021 34005KT CAVOK
       
LWSK 192230Z 00000KT CAVOK 08/06 Q1019 NOSIG
TAF LWSK 192030Z 1921/2021 VRB02KT CAVOK
       
TAF LWOH 192030Z 1921/2021 34005KT CAVOK
       
LWSK 192230Z 00000KT CAVOK 08/06 Q1019 NOSIG
TAF LWSK 192030Z 1921/2021 VRB02KT CAVOK